Logo AVAMET
Benvolgut visitant, si us plau, ingressa Recuperar contrasenya

Inforatge Sagunt Policia Local

Dades diàries. Acumulats / Últims 30 dies disponibles

Data Temperatura (°C) Humitat rel. (%) Pressió rel. (hPa) Vent (km/h) Precipitació
Mínima Mitjana Màxima Amplitud
tèrmica
Mínima Mitjana Màxima Mínima Mitjana Màxima Predom. Mitjana Ràfega
màxima
Total
(mm)
Índex-n
Mínima Mitjana Màxima Mínima Mitjana Màxima n
0 a 1
P0 max
mm 5'
Dades mensuals acumulades fins l'últim dia disponible
07/2019 21,4 22,8 24,7 26,1 27,3 29,4 35,5 14,1 28 69 92 1.011 1.016 1.023   8,3 46,7 16,4
Dades anuals acumulades fins l'últim dia disponible
2019 3,0 12,6 24,7 16,6 11,1 20,7 35,5 32,5 17 63 97 991 1.019 1.037   9,9 98,2 94,4
Últims 30 dies disponibles
21-07-2019 24,1     26,7     29,1 5,0 59 76 86 1.019 1.021 1.023 SSE 8,5 35,4 0,0
20-07-2019 23,1     26,3     29,6 6,5 45 67 81 1.016 1.017 1.020 S 8,0 27,8 0,0
19-07-2019 22,7     25,7     28,2 5,5 61 72 83 1.016 1.017 1.018 SSE 7,5 27,8 0,0
18-07-2019 22,7     25,8     28,6 5,9 55 68 78 1.015 1.016 1.017 SSE 8,5 27,8 0,0
17-07-2019 22,1     25,9     30,0 7,9 48 68 78 1.014 1.015 1.017 SSE 6,4 29,6 0,0
16-07-2019 22,4     25,8     28,2 5,8 56 70 81 1.015 1.017 1.018 SE 8,7 32,2 0,0
15-07-2019 23,1     26,2     29,0 5,9 55 68 77 1.012 1.013 1.015 SSO 8,6 31,5 0,0
14-07-2019 22,2     25,7     28,4 6,2 60 72 81 1.011 1.013 1.014 S 9,3 32,2 0,0
13-07-2019 24,7     26,6     29,3 4,6 45 67 84 1.013 1.015 1.017 ESE 9,6 33,9 0,0
12-07-2019 22,6     26,9     30,4 7,8 50 63 78 1.015 1.016 1.017 SSE 6,8 24,1 0,0
11-07-2019 21,9     26,2     29,9 8,0 51 68 82 1.015 1.016 1.017 S 7,5 25,9 0,0
10-07-2019 21,6     25,0     27,3 5,7 59 73 86 1.015 1.016 1.017 SSE 8,0 32,2 0,0
09-07-2019 23,4     25,7     29,5 6,1 45 66 85 1.011 1.013 1.016 S 11,5 46,7 0,0
08-07-2019 23,4     25,3     27,9 4,5 67 77 86 1.012 1.013 1.016 SSE 8,6 38,9 8,6 0,42 1,20
07-07-2019 24,6     27,5     35,5 10,9 28 70 92 1.011 1.013 1.015 S 8,9 40,7 7,8 0,31 1,20
06-07-2019 23,1     26,6     29,8 6,7 63 78 87 1.011 1.014 1.017 SSE 5,7 24,1 0,0
05-07-2019 22,3     26,2     29,3 7,0 57 71 88 1.015 1.017 1.019 S 6,8 24,1 0,0
04-07-2019 22,8     26,5     30,2 7,4 42 59 88 1.016 1.017 1.019 SSE 9,0 32,2 0,0
03-07-2019 22,8     26,4     29,8 7,0 39 56 67 1.015 1.016 1.017 SSE 8,1 24,1 0,0
02-07-2019 22,5     25,6     28,8 6,3 53 72 88 1.015 1.017 1.018 E 8,1 29,6 0,0
01-07-2019 21,4     25,2     27,9 6,5 54 73 85 1.017 1.018 1.019 ESE 9,5 32,2 0,0
30-06-2019 22,4     26,8     30,8 8,4 32 54 85 1.017 1.018 1.019 SSE 7,0 22,6 0,0
29-06-2019 20,7     28,3     34,2 13,5 25 41 54 1.015 1.016 1.017 SO 6,6 24,1 0,0
28-06-2019 22,0     27,5     32,4 10,4 40 54 76 1.016 1.018 1.020 SSO 6,3 22,6 0,0
27-06-2019 21,1     25,5     29,4 8,3 45 68 87 1.019 1.021 1.022 ESE 7,3 27,8 0,0
26-06-2019 21,2     23,7     26,4 5,2 66 82 90 1.018 1.020 1.021 E 12,2 45,0 0,0
25-06-2019 20,7     23,1     25,6 4,9 70 81 88 1.016 1.018 1.020 SSE 8,6 35,4 0,0
24-06-2019 19,3     22,8     25,6 6,3 55 73 87 1.015 1.016 1.017 SE 10,7 35,4 0,0
23-06-2019 18,3     22,8     26,6 8,3 57 74 87 1.015 1.016 1.017 SSE 6,0 24,1 0,0
22-06-2019 19,9     22,4     25,0 5,1 66 76 86 1.016 1.017 1.019 S 7,5 27,8 0,0
Últims 13 mesos disponibles
06/2019 12,9 18,0 22,4 22,1 20,3 25,6 34,2 21,3 41 66 82 1.009 1.016 1.023 SSE 9,1 63,0 0,0
05/2019 10,6 14,6 17,9 18,2 17,6 21,9 33,0 22,4 49 67 85 1.005 1.016 1.025 S 9,7 68,5 18,4
04/2019 8,3 11,6 14,6 15,2 15,4 19,3 27,2 18,9 43 65 93 1.000 1.014 1.026 OSO 13,0 79,6 37,2
03/2019 7,2 9,7 15,2 14,2 12,5 18,5 27,5 20,3 42 60 85 1.012 1.024 1.031 S 9,1 64,8 22,0
02/2019 3,3 7,4 11,1 12,0 13,8 16,8 22,6 19,3 30 63 76 994 1.025 1.035 SO 9,5 98,2 0,0
01/2019 3,0 6,8 12,1 11,4 11,1 16,1 20,7 17,7 39 57 76 1.002 1.019 1.031 OSO 10,1 88,9 0,4
12/2018 5,6 9,0 12,8 13,2 13,8 17,8 25,2 19,6 49 69 84 1.008 1.025 1.031 OSO 8,1 61,1 12,2
11/2018 7,3 11,7 15,9 14,8 14,4 18,4 23,3 16,0 46 71 93 1.003 1.016 1.025 OSO 10,7 80,6 106,0
10/2018 9,3 15,5 19,2 18,8 14,0 22,3 26,3 17,0 41 69 90 1.000 1.015 1.026 SSO 9,5 64,8 176,8
09/2018 17,6 21,0 24,0 24,2 24,3 27,4 31,3 13,7 51 75 85 1.013 1.020 1.029 8,1 45,0 54,8
08/2018 20,8 23,5 27,3 26,8 26,2 29,8 35,1 14,3 52 70 80 1.013 1.017 1.022 8,4 53,7 17,2
Tots els anys disponibles
Temperatura (°C)
Humitat relativa (%)
Velocitat del vent i ràfega màxima (km/h)
Direcció del vent (°)
Pressió (hPa)
Precipitació (mm)
Nota sobre les dades: s'avisa a l'usuari de la provisionalitat i no oficialitat d'aquestes dades
Logo AVAMET blanc
Web allotjada a Sollutia
Llicència de Creative CommonsLa web d'AVAMET i els seus continguts estan subjectes a una llicència de
Reconeixement - No Comercial - Compartir igual
Properes estacions: Altea - Club Nàutic d'Altea (Soci), Ares del Maestrat (Ajuntament Soci),      - - - - -      Últimes estacions: Catadau - Urb. Lloma Molina (Inforatge), Ontinyent - El Pilar (Soci), Asp - Poliesportiu (Soci) - - -